createdAt,value
2022-12-22T00:01:15.478Z,-0.10
2022-12-22T00:06:35.839Z,-0.20
2022-12-22T00:11:56.558Z,-0.20
2022-12-22T00:17:19.048Z,-0.20
2022-12-22T00:22:41.520Z,-0.20
2022-12-22T00:28:01.904Z,-0.30
2022-12-22T00:33:23.226Z,-0.30
2022-12-22T00:38:43.751Z,-0.30
2022-12-22T00:44:04.103Z,-0.30
2022-12-22T00:49:24.637Z,-0.30
2022-12-22T00:54:44.940Z,-0.20
2022-12-22T01:00:06.794Z,-0.20
2022-12-22T01:05:27.195Z,-0.20
2022-12-22T01:10:47.627Z,-0.30
2022-12-22T01:16:08.206Z,-0.30
2022-12-22T01:21:29.320Z,-0.30
2022-12-22T01:26:50.097Z,-0.40
2022-12-22T01:32:11.028Z,-0.40
2022-12-22T01:37:31.401Z,-0.40
2022-12-22T01:42:53.053Z,-0.50
2022-12-22T01:48:13.340Z,-0.50
2022-12-22T01:53:44.862Z,-0.50
2022-12-22T01:59:09.571Z,-0.50
2022-12-22T02:04:30.163Z,-0.50
2022-12-22T02:10:21.597Z,-0.40
2022-12-22T02:15:51.200Z,-0.40
2022-12-22T02:21:12.731Z,-0.40
2022-12-22T02:26:51.799Z,-0.30
2022-12-22T02:32:12.167Z,-0.40
2022-12-22T02:37:46.767Z,-0.30
2022-12-22T02:43:09.926Z,-0.30
2022-12-22T02:48:34.949Z,-0.20
2022-12-22T02:53:56.366Z,-0.30
2022-12-22T02:59:16.541Z,-0.30
2022-12-22T03:04:36.842Z,-0.20
2022-12-22T03:09:57.352Z,-0.20
2022-12-22T03:15:17.557Z,-0.20
2022-12-22T03:20:38.010Z,-0.30
2022-12-22T03:25:55.098Z,-0.30
2022-12-22T03:31:00.241Z,-0.30
2022-12-22T03:36:02.292Z,-0.40
2022-12-22T03:41:04.625Z,-0.40
2022-12-22T03:46:25.256Z,-0.40
2022-12-22T03:51:27.108Z,-0.40
2022-12-22T03:56:30.118Z,-0.50
2022-12-22T04:01:33.574Z,-0.50
2022-12-22T04:06:35.554Z,-0.40
2022-12-22T04:11:55.921Z,-0.40
2022-12-22T04:16:57.820Z,-0.40
2022-12-22T04:22:00.790Z,-0.50
2022-12-22T04:27:02.669Z,-0.50
2022-12-22T04:32:04.781Z,-0.50
2022-12-22T04:37:14.910Z,-0.50
2022-12-22T04:42:18.849Z,-0.50
2022-12-22T04:47:20.728Z,-0.60
2022-12-22T04:52:22.822Z,-0.70
2022-12-22T04:57:24.700Z,-0.70
2022-12-22T05:02:26.622Z,-0.70
2022-12-22T05:07:28.471Z,-0.70
2022-12-22T05:12:48.576Z,-0.70
2022-12-22T05:17:50.482Z,-0.70
2022-12-22T05:22:52.336Z,-0.60
2022-12-22T05:27:54.838Z,-0.60
2022-12-22T05:32:56.721Z,-0.60
2022-12-22T05:37:58.646Z,-0.60
2022-12-22T05:43:00.461Z,-0.60
2022-12-22T05:48:02.291Z,-0.60
2022-12-22T05:53:05.587Z,-0.60
2022-12-22T05:58:07.506Z,-0.60
2022-12-22T06:03:09.459Z,-0.60
2022-12-22T06:08:11.338Z,-0.50
2022-12-22T06:13:13.185Z,-0.60
2022-12-22T06:18:15.103Z,-0.60
2022-12-22T06:23:16.931Z,-0.60
2022-12-22T06:28:18.761Z,-0.60
2022-12-22T06:33:20.922Z,-0.60
2022-12-22T06:38:22.727Z,-0.70
2022-12-22T06:43:24.943Z,-0.70
2022-12-22T06:48:26.797Z,-0.70
2022-12-22T06:53:28.723Z,-0.70
2022-12-22T06:58:30.540Z,-0.70
2022-12-22T07:03:32.438Z,-0.60
2022-12-22T07:08:34.406Z,-0.60
2022-12-22T07:13:37.346Z,-0.60
2022-12-22T07:18:41.149Z,-0.60
2022-12-22T07:23:43.073Z,-0.60
2022-12-22T07:28:44.960Z,-0.50
2022-12-22T07:33:46.931Z,-0.60
2022-12-22T07:38:50.236Z,-0.50
2022-12-22T07:43:53.790Z,-0.50
2022-12-22T07:49:14.170Z,-0.50
2022-12-22T07:54:17.006Z,-0.50
2022-12-22T07:59:19.653Z,-0.50
2022-12-22T08:04:22.544Z,-0.40
2022-12-22T08:09:24.568Z,-0.40
2022-12-22T08:14:26.522Z,-0.40
2022-12-22T08:19:28.574Z,-0.30
2022-12-22T08:24:30.593Z,-0.30
2022-12-22T08:29:41.629Z,-0.30
2022-12-22T08:34:43.725Z,-0.30
2022-12-22T08:39:48.874Z,-0.30
2022-12-22T08:44:53.399Z,-0.10
2022-12-22T08:49:55.422Z,-0.10
2022-12-22T08:54:57.265Z,-0.10
2022-12-22T08:59:59.174Z,-0.10
2022-12-22T09:05:01.073Z,-0.10
2022-12-22T09:10:02.958Z,-0.10
2022-12-22T09:15:06.137Z,-0.10
2022-12-22T09:20:08.533Z,0.00
2022-12-22T09:25:10.876Z,-0.10
2022-12-22T09:30:15.399Z,0.00
2022-12-22T09:35:23.379Z,-0.10
2022-12-22T09:40:26.643Z,-0.10
2022-12-22T09:45:29.266Z,-0.10
2022-12-22T09:50:33.038Z,-0.10
2022-12-22T09:55:41.165Z,0.00
2022-12-22T10:00:48.221Z,0.00
2022-12-22T10:06:06.021Z,-0.10
2022-12-22T10:11:13.229Z,0.00
2022-12-22T10:16:27.067Z,0.00
2022-12-22T10:21:29.001Z,0.00
2022-12-22T10:26:33.533Z,0.10
2022-12-22T10:31:40.010Z,0.10
2022-12-22T10:36:53.672Z,0.20
2022-12-22T10:41:59.544Z,0.20
2022-12-22T10:47:17.631Z,0.30
2022-12-22T10:52:30.114Z,0.30
2022-12-22T10:57:34.755Z,0.30
2022-12-22T11:02:38.587Z,0.30
2022-12-22T11:07:43.073Z,0.30
2022-12-22T11:13:02.404Z,0.30
2022-12-22T11:18:30.099Z,0.30
2022-12-22T11:23:40.758Z,0.30
2022-12-22T11:28:45.309Z,0.40
2022-12-22T11:33:58.995Z,0.40
2022-12-22T11:39:04.865Z,0.40
2022-12-22T11:44:29.899Z,0.40
2022-12-22T11:50:57.437Z,0.40
2022-12-22T11:55:31.021Z,0.40
2022-12-22T12:01:12.260Z,0.50
2022-12-22T12:06:17.293Z,0.50
2022-12-22T12:11:47.464Z,0.50
2022-12-22T12:16:54.346Z,0.60
2022-12-22T12:22:04.858Z,0.70
2022-12-22T12:27:37.490Z,0.60
2022-12-22T12:33:07.600Z,0.60
2022-12-22T12:43:58.169Z,0.60
2022-12-22T12:49:00.923Z,0.60
2022-12-22T12:54:30.879Z,0.60
2022-12-22T12:59:41.785Z,0.60
2022-12-22T13:05:33.037Z,0.60
2022-12-22T13:10:45.755Z,0.60
2022-12-22T13:16:07.753Z,0.60
2022-12-22T13:21:51.482Z,0.60
2022-12-22T13:26:39.772Z,0.70
2022-12-22T13:32:25.282Z,0.70
2022-12-22T13:37:28.959Z,0.70
2022-12-22T13:42:31.228Z,0.70
2022-12-22T13:47:33.284Z,0.70
2022-12-22T13:52:35.262Z,0.80
2022-12-22T13:57:39.435Z,0.80
2022-12-22T14:02:41.654Z,0.90
2022-12-22T14:08:01.102Z,1.00
2022-12-22T14:13:06.838Z,1.00
2022-12-22T14:18:17.051Z,1.00
2022-12-22T14:23:34.812Z,0.90
2022-12-22T14:28:47.549Z,0.90
2022-12-22T14:33:54.761Z,0.90
2022-12-22T14:39:03.718Z,0.90
2022-12-22T14:44:14.575Z,0.90
2022-12-22T14:49:18.346Z,0.90
2022-12-22T14:54:26.841Z,0.90
2022-12-22T14:59:31.638Z,0.90
2022-12-22T15:04:41.336Z,0.90
2022-12-22T15:15:13.380Z,0.90
2022-12-22T15:20:27.013Z,0.80
2022-12-22T15:25:29.016Z,0.90
2022-12-22T15:30:30.994Z,0.90
2022-12-22T15:35:34.642Z,0.90
2022-12-22T15:40:40.035Z,0.90
2022-12-22T15:45:42.410Z,0.90
2022-12-22T15:50:45.186Z,0.80
2022-12-22T15:55:52.334Z,0.90
2022-12-22T16:00:55.436Z,0.90
2022-12-22T16:05:58.069Z,0.90
2022-12-22T16:11:00.382Z,1.00
2022-12-22T16:16:02.372Z,1.00
2022-12-22T16:21:15.061Z,1.00
2022-12-22T16:26:19.247Z,1.00
2022-12-22T16:31:25.407Z,0.90
2022-12-22T16:36:27.399Z,0.90
2022-12-22T16:41:29.405Z,0.90
2022-12-22T16:46:33.546Z,0.90
2022-12-22T16:51:44.317Z,0.90
2022-12-22T16:56:53.975Z,0.90
2022-12-22T17:02:00.695Z,0.90
2022-12-22T17:07:06.614Z,0.90
2022-12-22T17:12:13.203Z,0.90
2022-12-22T17:17:17.651Z,0.80
2022-12-22T17:22:29.117Z,0.70
2022-12-22T17:27:32.708Z,0.70
2022-12-22T17:32:34.559Z,0.60
2022-12-22T17:37:36.405Z,0.60
2022-12-22T17:42:38.373Z,0.60
2022-12-22T17:47:42.840Z,0.60
2022-12-22T17:52:45.959Z,0.60
2022-12-22T17:57:48.323Z,0.60
2022-12-22T18:02:50.965Z,0.70
2022-12-22T18:07:54.710Z,0.70
2022-12-22T18:12:58.363Z,0.70
2022-12-22T18:18:00.381Z,0.70
2022-12-22T18:23:02.539Z,0.80
2022-12-22T18:28:04.459Z,0.70
2022-12-22T18:33:06.307Z,0.80
2022-12-22T18:38:21.627Z,0.80
2022-12-22T18:43:23.813Z,0.80
2022-12-22T18:48:25.656Z,0.90
2022-12-22T18:53:29.807Z,0.90
2022-12-22T18:58:31.785Z,0.90
2022-12-22T19:03:34.016Z,0.90
2022-12-22T19:08:39.072Z,0.90
2022-12-22T19:13:47.500Z,0.90
2022-12-22T19:18:49.359Z,1.00
2022-12-22T19:23:51.199Z,1.00
2022-12-22T19:28:59.409Z,1.10
2022-12-22T19:34:04.706Z,1.10
2022-12-22T19:39:06.615Z,1.10
2022-12-22T19:44:25.506Z,1.10
2022-12-22T19:49:28.029Z,1.10
2022-12-22T19:54:32.186Z,1.10
2022-12-22T19:59:39.805Z,1.20
2022-12-22T20:04:41.868Z,1.20
2022-12-22T20:09:43.708Z,1.20
2022-12-22T20:14:45.588Z,1.20
2022-12-22T20:19:47.411Z,1.20
2022-12-22T20:24:50.381Z,1.30
2022-12-22T20:29:52.223Z,1.30
2022-12-22T20:34:54.090Z,1.30
2022-12-22T20:39:55.976Z,1.30
2022-12-22T20:45:02.641Z,1.40
2022-12-22T20:50:35.858Z,1.40
2022-12-22T20:55:37.815Z,1.40
2022-12-22T21:00:39.683Z,1.50
2022-12-22T21:05:41.644Z,1.50
2022-12-22T21:10:45.414Z,1.50
2022-12-22T21:15:50.705Z,1.60
2022-12-22T21:20:52.574Z,1.60
2022-12-22T21:25:54.485Z,1.70
2022-12-22T21:30:57.751Z,1.70
2022-12-22T21:36:00.225Z,1.70
2022-12-22T21:41:02.038Z,1.70
2022-12-22T21:46:03.981Z,1.70
2022-12-22T21:51:05.836Z,1.80
2022-12-22T21:56:18.275Z,1.90
2022-12-22T22:01:20.210Z,1.90
2022-12-22T22:06:22.237Z,2.00
2022-12-22T22:11:25.531Z,2.00
2022-12-22T22:16:27.421Z,2.10
2022-12-22T22:21:34.960Z,2.20
2022-12-22T22:26:40.593Z,2.20
2022-12-22T22:31:42.620Z,2.20
2022-12-22T22:36:44.462Z,2.10
2022-12-22T22:41:46.294Z,2.10
2022-12-22T22:46:48.184Z,2.00
2022-12-22T22:51:50.219Z,2.00
2022-12-22T22:56:52.728Z,2.00
2022-12-22T23:01:54.670Z,2.00
2022-12-22T23:06:56.560Z,2.00
2022-12-22T23:11:58.436Z,2.00
2022-12-22T23:17:00.296Z,2.00
2022-12-22T23:22:02.158Z,2.10
2022-12-22T23:27:04.011Z,2.20
2022-12-22T23:32:06.285Z,2.20
2022-12-22T23:37:12.156Z,2.10
2022-12-22T23:42:17.075Z,2.00
2022-12-22T23:47:18.966Z,2.00
2022-12-22T23:52:20.809Z,2.30
2022-12-22T23:57:22.839Z,2.50
